KAQV

Peason Ridge Airport

Fort Polk, Louisiana, USA
METAR KAQV 250056Z AUTO 02003KT 10SM CLR 26/21 A3000 RMK AO2 SLP156 T02560206
Observed Flight Rules
May-25 @ 00:56 UTC (13 minutes ago) Visual Flight Rules
Wind Visibility Clouds
20° at 3 knots 10 miles
  • Clear skies
Temperatures Readings
Current 26°C / 79°F
Dewpoint 21°C / 70°F
Humidity 74%
Altimeter 30" Hg
Pressure 1015.6 hPa
Elevation 111
METAR KAQV 250056Z AUTO 02003KT 10SM CLR 26/21 A3000 RMK AO2 SLP156 T02560206
Observed Flight Rules
May-25 @ 00:56 UTC
(13 minutes ago)
VFR
Wind Visibility
20° at 3 knots 10 miles
Clouds
  • Clear skies
Temperature Dewpoint
26°C / 79°F 21°C / 70°F
Humidity Altimeter Pressure
74% 30" Hg 1015.6 hPa